PWSweather.com
Personal Weather Stations
Station Observations
MENWDWX1
Menstrie, ScotlandGB

MenstrieScotlandGB

Lat: 56.148322, Lon: -3.85483

Elevation: 62

Station Type: Davis Vantage Pro 2

Latest ConditionsUpdated 3:45:01 PM GMT Tuesday, Sep 25, 2018
Currently Today's Max Today's Min Today's Average
Temperature 51.7°F10.9°C 55.1°F12.8°C 43.3°F6.3°C 48.6°F9.2°C
Dew Point 44.7°F7.1°C 46.0°F7.8°C 37.1°F2.8°C 41.0°F5.0°C
Winds 5.8 mph WSW9.3 kmh WSW 13.8 mph -22.2 kmh - - 3.6 mph 5.8 kmh
Wind Gusts 10.4 mph16.7 kmh 23.0 mph37.0 kmh - -
Humidity 77% 79% 60% 75%
Pressure 30.28 in1025.4 mb 30.54 in1034.2 mb 30.28 in1025.4 mb -
Precipitation - 0.02 in0.5 mm - -
Hour Temp Dew Point Humidity Winds Wind Gusts Pressure Precip Precip Rate Daily Precip Total
03:45 PM 51.7°F10.9°C 44.7°F7.1°C 77% 5.8 mph WSW9.3 kmh WSW 10.4 mph16.7 kmh 30.28 in1025.4 mb - 0.00 in0.0 mm 0.02 in0.5 mm
03:40 PM 51.6°F10.9°C 44.6°F7.0°C 77% 3.5 mph W5.6 kmh W 5.8 mph9.3 kmh 30.28 in1025.4 mb - 0.00 in0.0 mm 0.02 in0.5 mm
03:35 PM 51.5°F10.8°C 44.5°F6.9°C 77% 5.8 mph SW9.3 kmh SW 10.4 mph16.7 kmh 30.28 in1025.4 mb - 0.00 in0.0 mm 0.02 in0.5 mm
03:30 PM 51.4°F10.8°C 44.4°F6.9°C 77% 8.1 mph WSW13.0 kmh WSW 13.8 mph22.2 kmh 30.28 in1025.4 mb - 0.00 in0.0 mm 0.02 in0.5 mm
03:25 PM 51.4°F10.8°C 44.4°F6.9°C 77% 5.8 mph WSW9.3 kmh WSW 10.4 mph16.7 kmh 30.28 in1025.4 mb - 0.00 in0.0 mm 0.02 in0.5 mm
03:20 PM 51.4°F10.8°C 44.4°F6.9°C 77% 8.1 mph SW13.0 kmh SW 11.5 mph18.5 kmh 30.28 in1025.4 mb - 0.00 in0.0 mm 0.02 in0.5 mm
03:15 PM 51.4°F10.8°C 44.4°F6.9°C 77% 8.1 mph WSW13.0 kmh WSW 11.5 mph18.5 kmh 30.29 in1025.7 mb - 0.00 in0.0 mm 0.02 in0.5 mm
03:10 PM 51.5°F10.8°C 44.5°F6.9°C 77% 6.9 mph WSW11.1 kmh WSW 10.4 mph16.7 kmh 30.29 in1025.7 mb - 0.00 in0.0 mm 0.02 in0.5 mm
03:05 PM 51.5°F10.8°C 44.5°F6.9°C 77% 6.9 mph SW11.1 kmh SW 11.5 mph18.5 kmh 30.29 in1025.7 mb - 0.01 in0.3 mm 0.02 in0.5 mm
03:00 PM 51.6°F10.9°C 44.6°F7.0°C 77% 6.9 mph WSW11.1 kmh WSW 15.0 mph24.1 kmh 30.29 in1025.7 mb - 0.00 in0.0 mm 0.01 in0.3 mm
02:55 PM 51.7°F10.9°C 44.7°F7.1°C 77% 9.2 mph WSW14.8 kmh WSW 13.8 mph22.2 kmh 30.29 in1025.7 mb - 0.00 in0.0 mm 0.01 in0.3 mm
02:50 PM 51.9°F11.1°C 44.9°F7.2°C 77% 8.1 mph WSW13.0 kmh WSW 11.5 mph18.5 kmh 30.30 in1026.1 mb - 0.00 in0.0 mm 0.01 in0.3 mm
02:45 PM 52.1°F11.2°C 45.1°F7.3°C 77% 6.9 mph WSW11.1 kmh WSW 11.5 mph18.5 kmh 30.30 in1026.1 mb - 0.00 in0.0 mm 0.01 in0.3 mm
02:40 PM 52.4°F11.3°C 45.4°F7.4°C 77% 6.9 mph WSW11.1 kmh WSW 10.4 mph16.7 kmh 30.30 in1026.1 mb - 0.01 in0.3 mm 0.01 in0.3 mm
02:35 PM 52.5°F11.4°C 45.5°F7.5°C 77% 6.9 mph WSW11.1 kmh WSW 8.1 mph13.0 kmh 30.30 in1026.1 mb - 0.01 in0.3 mm 0.01 in0.3 mm
02:30 PM 52.7°F11.5°C 45.4°F7.4°C 76% 5.8 mph WSW9.3 kmh WSW 10.4 mph16.7 kmh 30.30 in1026.1 mb - 0.00 in0.0 mm 0.00 in0.0 mm
02:25 PM 52.9°F11.6°C 45.5°F7.5°C 76% 8.1 mph WSW13.0 kmh WSW 12.7 mph20.4 kmh 30.31 in1026.4 mb - 0.00 in0.0 mm 0.00 in0.0 mm
02:20 PM 53.2°F11.8°C 45.8°F7.7°C 76% 8.1 mph WSW13.0 kmh WSW 18.4 mph29.6 kmh 30.31 in1026.4 mb - 0.00 in0.0 mm 0.00 in0.0 mm
02:15 PM 53.5°F11.9°C 45.7°F7.6°C 75% 8.1 mph SW13.0 kmh SW 11.5 mph18.5 kmh 30.31 in1026.4 mb - 0.00 in0.0 mm 0.00 in0.0 mm
02:10 PM 53.5°F11.9°C 45.8°F7.7°C 75% 3.5 mph SW5.6 kmh SW 9.2 mph14.8 kmh 30.31 in1026.4 mb - 0.00 in0.0 mm 0.00 in0.0 mm
02:05 PM 53.6°F12.0°C 45.9°F7.7°C 75% 4.6 mph WSW7.4 kmh WSW 12.7 mph20.4 kmh 30.31 in1026.4 mb - 0.00 in0.0 mm 0.00 in0.0 mm
02:00 PM 53.7°F12.1°C 46.0°F7.8°C 75% 2.3 mph WSW3.7 kmh WSW 3.5 mph5.6 kmh 30.31 in1026.4 mb - 0.00 in0.0 mm 0.00 in0.0 mm
01:55 PM 53.8°F12.1°C 45.7°F7.6°C 74% 5.8 mph W9.3 kmh W 8.1 mph13.0 kmh 30.32 in1026.8 mb - 0.00 in0.0 mm 0.00 in0.0 mm
01:50 PM 54.0°F12.2°C 45.5°F7.5°C 73% 4.6 mph WSW7.4 kmh WSW 8.1 mph13.0 kmh 30.32 in1026.8 mb - 0.00 in0.0 mm 0.00 in0.0 mm
01:45 PM 54.2°F12.3°C 45.0°F7.2°C 71% 5.8 mph SW9.3 kmh SW 11.5 mph18.5 kmh 30.33 in1027.1 mb - 0.00 in0.0 mm 0.00 in0.0 mm
01:40 PM 54.3°F12.4°C 44.8°F7.1°C 70% 6.9 mph WSW11.1 kmh WSW 11.5 mph18.5 kmh 30.33 in1027.1 mb - 0.00 in0.0 mm 0.00 in0.0 mm
01:35 PM 54.5°F12.5°C 44.2°F6.8°C 68% 6.9 mph WSW11.1 kmh WSW 11.5 mph18.5 kmh 30.33 in1027.1 mb - 0.00 in0.0 mm 0.00 in0.0 mm
01:30 PM 54.6°F12.6°C 43.9°F6.6°C 67% 8.1 mph WSW13.0 kmh WSW 11.5 mph18.5 kmh 30.32 in1026.8 mb - 0.00 in0.0 mm 0.00 in0.0 mm
01:25 PM 54.8°F12.7°C 44.8°F7.1°C 69% 5.8 mph WSW9.3 kmh WSW 9.2 mph14.8 kmh 30.32 in1026.8 mb - 0.00 in0.0 mm 0.00 in0.0 mm
01:20 PM 54.8°F12.7°C 45.2°F7.3°C 70% 4.6 mph WSW7.4 kmh WSW 11.5 mph18.5 kmh 30.32 in1026.8 mb - 0.00 in0.0 mm 0.00 in0.0 mm
01:15 PM 54.8°F12.7°C 44.8°F7.1°C 69% 8.1 mph SW13.0 kmh SW 9.2 mph14.8 kmh 30.33 in1027.1 mb - 0.00 in0.0 mm 0.00 in0.0 mm
01:10 PM 54.9°F12.7°C 44.9°F7.2°C 69% 6.9 mph WSW11.1 kmh WSW 10.4 mph16.7 kmh 30.33 in1027.1 mb - 0.00 in0.0 mm 0.00 in0.0 mm
01:05 PM 55.0°F12.8°C 44.6°F7.0°C 68% 9.2 mph SW14.8 kmh SW 21.9 mph35.2 kmh 30.34 in1027.4 mb - 0.00 in0.0 mm 0.00 in0.0 mm
01:00 PM 55.1°F12.8°C 44.7°F7.1°C 68% 9.2 mph WSW14.8 kmh WSW 18.4 mph29.6 kmh 30.34 in1027.4 mb - 0.00 in0.0 mm 0.00 in0.0 mm
12:55 PM 55.1°F12.8°C 44.3°F6.8°C 67% 13.8 mph WSW22.2 kmh WSW 17.3 mph27.8 kmh 30.34 in1027.4 mb - 0.00 in0.0 mm 0.00 in0.0 mm
12:50 PM 55.0°F12.8°C 44.2°F6.8°C 67% 8.1 mph WSW13.0 kmh WSW 16.1 mph25.9 kmh 30.34 in1027.4 mb - 0.00 in0.0 mm 0.00 in0.0 mm
12:45 PM 54.9°F12.7°C 44.5°F6.9°C 68% 11.5 mph WSW18.5 kmh WSW 17.3 mph27.8 kmh 30.33 in1027.1 mb - 0.00 in0.0 mm 0.00 in0.0 mm
12:40 PM 54.9°F12.7°C 44.1°F6.7°C 67% 8.1 mph SW13.0 kmh SW 19.6 mph31.5 kmh 30.34 in1027.4 mb - 0.00 in0.0 mm 0.00 in0.0 mm
12:35 PM 55.0°F12.8°C 44.2°F6.8°C 67% 10.4 mph WSW16.7 kmh WSW 18.4 mph29.6 kmh 30.34 in1027.4 mb - 0.00 in0.0 mm 0.00 in0.0 mm
12:30 PM 54.9°F12.7°C 44.5°F6.9°C 68% 6.9 mph SW11.1 kmh SW 13.8 mph22.2 kmh 30.34 in1027.4 mb - 0.00 in0.0 mm 0.00 in0.0 mm
12:25 PM 54.7°F12.6°C 44.4°F6.9°C 68% 9.2 mph WSW14.8 kmh WSW 15.0 mph24.1 kmh 30.34 in1027.4 mb - 0.00 in0.0 mm 0.00 in0.0 mm
12:20 PM 54.6°F12.6°C 44.3°F6.8°C 68% 9.2 mph SW14.8 kmh SW 15.0 mph24.1 kmh 30.34 in1027.4 mb - 0.00 in0.0 mm 0.00 in0.0 mm
12:15 PM 54.6°F12.6°C 44.2°F6.8°C 68% 8.1 mph WSW13.0 kmh WSW 12.7 mph20.4 kmh 30.35 in1027.8 mb - 0.00 in0.0 mm 0.00 in0.0 mm
12:10 PM 54.6°F12.6°C 43.9°F6.6°C 67% 9.2 mph WSW14.8 kmh WSW 13.8 mph22.2 kmh 30.35 in1027.8 mb - 0.00 in0.0 mm 0.00 in0.0 mm
12:05 PM 54.6°F12.6°C 43.5°F6.4°C 66% 12.7 mph SW20.4 kmh SW 16.1 mph25.9 kmh 30.36 in1028.1 mb - 0.00 in0.0 mm 0.00 in0.0 mm
12:00 PM 54.6°F12.6°C 44.3°F6.8°C 68% 8.1 mph WSW13.0 kmh WSW 23.0 mph37.0 kmh 30.35 in1027.8 mb - 0.00 in0.0 mm 0.00 in0.0 mm
11:55 AM 54.7°F12.6°C 43.9°F6.6°C 67% 8.1 mph SW13.0 kmh SW 11.5 mph18.5 kmh 30.36 in1028.1 mb - 0.00 in0.0 mm 0.00 in0.0 mm
11:50 AM 54.6°F12.6°C 43.5°F6.4°C 66% 11.5 mph SW18.5 kmh SW 13.8 mph22.2 kmh 30.36 in1028.1 mb - 0.00 in0.0 mm 0.00 in0.0 mm
11:45 AM 54.5°F12.5°C 43.8°F6.6°C 67% 6.9 mph SW11.1 kmh SW 10.4 mph16.7 kmh 30.36 in1028.1 mb - 0.00 in0.0 mm 0.00 in0.0 mm
11:40 AM 54.4°F12.4°C 43.3°F6.3°C 66% 8.1 mph WSW13.0 kmh WSW 13.8 mph22.2 kmh 30.36 in1028.1 mb - 0.00 in0.0 mm 0.00 in0.0 mm
11:35 AM 54.4°F12.4°C 43.3°F6.3°C 66% 10.4 mph SW16.7 kmh SW 16.1 mph25.9 kmh 30.36 in1028.1 mb - 0.00 in0.0 mm 0.00 in0.0 mm
11:30 AM 54.6°F12.6°C 42.3°F5.7°C 63% 11.5 mph WSW18.5 kmh WSW 18.4 mph29.6 kmh 30.36 in1028.1 mb - 0.00 in0.0 mm 0.00 in0.0 mm
11:25 AM 54.7°F12.6°C 42.3°F5.7°C 63% 6.9 mph WSW11.1 kmh WSW 13.8 mph22.2 kmh 30.36 in1028.1 mb - 0.00 in0.0 mm 0.00 in0.0 mm
11:20 AM 54.7°F12.6°C 42.3°F5.7°C 63% 8.1 mph SW13.0 kmh SW 13.8 mph22.2 kmh 30.37 in1028.4 mb - 0.00 in0.0 mm 0.00 in0.0 mm
11:15 AM 54.5°F12.5°C 41.7°F5.4°C 62% 9.2 mph WSW14.8 kmh WSW 13.8 mph22.2 kmh 30.37 in1028.4 mb - 0.00 in0.0 mm 0.00 in0.0 mm
11:10 AM 54.4°F12.4°C 40.8°F4.9°C 60% 9.2 mph SW14.8 kmh SW 16.1 mph25.9 kmh 30.37 in1028.4 mb - 0.00 in0.0 mm 0.00 in0.0 mm
11:05 AM 54.4°F12.4°C 41.6°F5.3°C 62% 10.4 mph SW16.7 kmh SW 15.0 mph24.1 kmh 30.37 in1028.4 mb - 0.00 in0.0 mm 0.00 in0.0 mm
11:00 AM 54.4°F12.4°C 42.8°F6.0°C 65% 8.1 mph SW13.0 kmh SW 20.7 mph33.3 kmh 30.37 in1028.4 mb - 0.00 in0.0 mm 0.00 in0.0 mm
10:55 AM 54.1°F12.3°C 43.4°F6.3°C 67% 4.6 mph SW7.4 kmh SW 12.7 mph20.4 kmh 30.38 in1028.8 mb - 0.00 in0.0 mm 0.00 in0.0 mm
10:50 AM 53.9°F12.2°C 43.6°F6.4°C 68% 9.2 mph SW14.8 kmh SW 12.7 mph20.4 kmh 30.38 in1028.8 mb - 0.00 in0.0 mm 0.00 in0.0 mm
10:45 AM 53.7°F12.1°C 44.1°F6.7°C 70% 3.5 mph SW5.6 kmh SW 3.5 mph5.6 kmh 30.38 in1028.8 mb - 0.00 in0.0 mm 0.00 in0.0 mm
10:40 AM 53.5°F11.9°C 44.0°F6.7°C 70% 6.9 mph SW11.1 kmh SW 13.8 mph22.2 kmh 30.38 in1028.8 mb - 0.00 in0.0 mm 0.00 in0.0 mm
10:35 AM 53.4°F11.9°C 43.9°F6.6°C 70% 4.6 mph SW7.4 kmh SW 11.5 mph18.5 kmh 30.38 in1028.8 mb - 0.00 in0.0 mm 0.00 in0.0 mm
10:30 AM 53.4°F11.9°C 44.2°F6.8°C 71% 6.9 mph SW11.1 kmh SW 8.1 mph13.0 kmh 30.39 in1029.1 mb - 0.00 in0.0 mm 0.00 in0.0 mm
10:25 AM 53.4°F11.9°C 44.6°F7.0°C 72% 9.2 mph SW14.8 kmh SW 11.5 mph18.5 kmh 30.39 in1029.1 mb - 0.00 in0.0 mm 0.00 in0.0 mm
10:20 AM 53.4°F11.9°C 45.0°F7.2°C 73% 5.8 mph WSW9.3 kmh WSW 11.5 mph18.5 kmh 30.39 in1029.1 mb - 0.00 in0.0 mm 0.00 in0.0 mm
10:15 AM 53.5°F11.9°C 45.1°F7.3°C 73% 4.6 mph SW7.4 kmh SW 8.1 mph13.0 kmh 30.39 in1029.1 mb - 0.00 in0.0 mm 0.00 in0.0 mm
10:10 AM 53.6°F12.0°C 45.5°F7.5°C 74% 5.8 mph SW9.3 kmh SW 11.5 mph18.5 kmh 30.40 in1029.5 mb - 0.00 in0.0 mm 0.00 in0.0 mm
10:05 AM 53.9°F12.2°C 45.1°F7.3°C 72% 8.1 mph SW13.0 kmh SW 13.8 mph22.2 kmh 30.41 in1029.8 mb - 0.00 in0.0 mm 0.00 in0.0 mm
10:00 AM 54.1°F12.3°C 45.3°F7.4°C 72% 6.9 mph WSW11.1 kmh WSW 11.5 mph18.5 kmh 30.41 in1029.8 mb - 0.00 in0.0 mm 0.00 in0.0 mm
09:55 AM 54.0°F12.2°C 45.6°F7.6°C 73% 6.9 mph SW11.1 kmh SW 12.7 mph20.4 kmh 30.41 in1029.8 mb - 0.00 in0.0 mm 0.00 in0.0 mm
09:50 AM 53.6°F12.0°C 45.5°F7.5°C 74% 5.8 mph SW9.3 kmh SW 10.4 mph16.7 kmh 30.41 in1029.8 mb - 0.00 in0.0 mm 0.00 in0.0 mm
09:45 AM 53.5°F11.9°C 45.4°F7.4°C 74% 12.7 mph SW20.4 kmh SW 18.4 mph29.6 kmh 30.41 in1029.8 mb - 0.00 in0.0 mm 0.00 in0.0 mm
09:40 AM 53.4°F11.9°C 45.3°F7.4°C 74% 11.5 mph SW18.5 kmh SW 16.1 mph25.9 kmh 30.41 in1029.8 mb - 0.00 in0.0 mm 0.00 in0.0 mm
09:35 AM 53.2°F11.8°C 45.5°F7.5°C 75% 11.5 mph SW18.5 kmh SW 18.4 mph29.6 kmh 30.42 in1030.1 mb - 0.00 in0.0 mm 0.00 in0.0 mm
09:30 AM 52.5°F11.4°C 44.8°F7.1°C 75% 10.4 mph SW16.7 kmh SW 16.1 mph25.9 kmh 30.42 in1030.1 mb - 0.00 in0.0 mm 0.00 in0.0 mm
09:25 AM 52.0°F11.1°C 44.7°F7.1°C 76% 6.9 mph WSW11.1 kmh WSW 10.4 mph16.7 kmh 30.42 in1030.1 mb - 0.00 in0.0 mm 0.00 in0.0 mm
09:20 AM 51.7°F10.9°C 44.4°F6.9°C 76% 4.6 mph WSW7.4 kmh WSW 6.9 mph11.1 kmh 30.42 in1030.1 mb - 0.00 in0.0 mm 0.00 in0.0 mm
09:15 AM 51.4°F10.8°C 44.1°F6.7°C 76% 6.9 mph WSW11.1 kmh WSW 10.4 mph16.7 kmh 30.43 in1030.5 mb - 0.00 in0.0 mm 0.00 in0.0 mm
09:10 AM 50.7°F10.4°C 43.7°F6.5°C 77% 6.9 mph SW11.1 kmh SW 11.5 mph18.5 kmh 30.43 in1030.5 mb - 0.00 in0.0 mm 0.00 in0.0 mm
09:05 AM 49.9°F9.9°C 43.3°F6.3°C 78% 2.3 mph SSW3.7 kmh SSW 3.5 mph5.6 kmh 30.43 in1030.5 mb - 0.00 in0.0 mm 0.00 in0.0 mm
09:00 AM 49.3°F9.6°C 42.8°F6.0°C 78% 2.3 mph W3.7 kmh W 3.5 mph5.6 kmh 30.43 in1030.5 mb - 0.00 in0.0 mm 0.00 in0.0 mm
08:55 AM 48.9°F9.4°C 42.4°F5.8°C 78% Calm Calm -- 30.43 in1030.5 mb - 0.00 in0.0 mm 0.00 in0.0 mm
08:50 AM 48.7°F9.3°C 42.1°F5.6°C 78% Calm Calm -- 30.43 in1030.5 mb - 0.00 in0.0 mm 0.00 in0.0 mm
08:45 AM 48.5°F9.2°C 41.9°F5.5°C 78% Calm Calm -- 30.43 in1030.5 mb - 0.00 in0.0 mm 0.00 in0.0 mm
08:40 AM 48.2°F9.0°C 41.6°F5.3°C 78% Calm Calm -- 30.44 in1030.8 mb - 0.00 in0.0 mm 0.00 in0.0 mm
08:35 AM 48.0°F8.9°C 41.5°F5.3°C 78% Calm Calm -- 30.44 in1030.8 mb - 0.00 in0.0 mm 0.00 in0.0 mm
08:30 AM 47.9°F8.8°C 41.4°F5.2°C 78% Calm Calm -- 30.44 in1030.8 mb - 0.00 in0.0 mm 0.00 in0.0 mm
08:25 AM 47.8°F8.8°C 41.3°F5.2°C 78% Calm Calm -- 30.44 in1030.8 mb - 0.00 in0.0 mm 0.00 in0.0 mm
08:20 AM 47.6°F8.7°C 41.1°F5.1°C 78% Calm Calm -- 30.44 in1030.8 mb - 0.00 in0.0 mm 0.00 in0.0 mm
08:15 AM 47.4°F8.6°C 40.9°F4.9°C 78% Calm Calm -- 30.44 in1030.8 mb - 0.00 in0.0 mm 0.00 in0.0 mm
08:10 AM 47.2°F8.4°C 40.7°F4.8°C 78% Calm Calm -- 30.44 in1030.8 mb - 0.00 in0.0 mm 0.00 in0.0 mm
08:05 AM 47.2°F8.4°C 40.7°F4.8°C 78% Calm Calm -- 30.45 in1031.2 mb - 0.00 in0.0 mm 0.00 in0.0 mm
08:00 AM 47.0°F8.3°C 40.5°F4.7°C 78% Calm Calm -- 30.45 in1031.2 mb - 0.00 in0.0 mm 0.00 in0.0 mm
07:55 AM 46.8°F8.2°C 40.3°F4.6°C 78% Calm Calm -- 30.45 in1031.2 mb - 0.00 in0.0 mm 0.00 in0.0 mm
07:50 AM 46.6°F8.1°C 40.1°F4.5°C 78% Calm Calm -- 30.45 in1031.2 mb - 0.00 in0.0 mm 0.00 in0.0 mm
07:45 AM 46.4°F8.0°C 39.9°F4.4°C 78% Calm Calm -- 30.45 in1031.2 mb - 0.00 in0.0 mm 0.00 in0.0 mm
07:40 AM 46.3°F7.9°C 39.8°F4.3°C 78% Calm Calm -- 30.45 in1031.2 mb - 0.00 in0.0 mm 0.00 in0.0 mm
07:35 AM 46.1°F7.8°C 39.6°F4.2°C 78% Calm Calm -- 30.45 in1031.2 mb - 0.00 in0.0 mm 0.00 in0.0 mm
07:30 AM 45.9°F7.7°C 39.4°F4.1°C 78% 1.2 mph E1.9 kmh E 3.5 mph5.6 kmh 30.45 in1031.2 mb - 0.00 in0.0 mm 0.00 in0.0 mm
07:25 AM 45.7°F7.6°C 39.2°F4.0°C 78% 2.3 mph NNE3.7 kmh NNE 3.5 mph5.6 kmh 30.45 in1031.2 mb - 0.00 in0.0 mm 0.00 in0.0 mm
07:20 AM 45.6°F7.6°C 39.1°F3.9°C 78% 3.5 mph ENE5.6 kmh ENE 8.1 mph13.0 kmh 30.45 in1031.2 mb - 0.00 in0.0 mm 0.00 in0.0 mm
07:15 AM 45.4°F7.4°C 38.9°F3.8°C 78% 3.5 mph E5.6 kmh E 6.9 mph11.1 kmh 30.45 in1031.2 mb - 0.00 in0.0 mm 0.00 in0.0 mm
07:10 AM 45.3°F7.4°C 38.8°F3.8°C 78% 3.5 mph E5.6 kmh E 6.9 mph11.1 kmh 30.45 in1031.2 mb - 0.00 in0.0 mm 0.00 in0.0 mm
07:05 AM 45.1°F7.3°C 39.0°F3.9°C 79% 2.3 mph E3.7 kmh E 3.5 mph5.6 kmh 30.45 in1031.2 mb - 0.00 in0.0 mm 0.00 in0.0 mm
07:00 AM 45.0°F7.2°C 38.9°F3.8°C 79% 2.3 mph E3.7 kmh E 5.8 mph9.3 kmh 30.45 in1031.2 mb - 0.00 in0.0 mm 0.00 in0.0 mm
06:55 AM 45.0°F7.2°C 38.9°F3.8°C 79% 2.3 mph E3.7 kmh E 3.5 mph5.6 kmh 30.45 in1031.2 mb - 0.00 in0.0 mm 0.00 in0.0 mm
06:50 AM 44.9°F7.2°C 38.8°F3.8°C 79% 2.3 mph SSW3.7 kmh SSW 3.5 mph5.6 kmh 30.46 in1031.5 mb - 0.00 in0.0 mm 0.00 in0.0 mm
06:45 AM 44.7°F7.1°C 38.6°F3.7°C 79% 1.2 mph E1.9 kmh E 3.5 mph5.6 kmh 30.46 in1031.5 mb - 0.00 in0.0 mm 0.00 in0.0 mm
06:40 AM 44.5°F6.9°C 38.4°F3.6°C 79% 2.3 mph E3.7 kmh E 2.3 mph3.7 kmh 30.46 in1031.5 mb - 0.00 in0.0 mm 0.00 in0.0 mm
06:35 AM 44.3°F6.8°C 38.2°F3.4°C 79% Calm Calm 3.5 mph5.6 kmh 30.46 in1031.5 mb - 0.00 in0.0 mm 0.00 in0.0 mm
06:30 AM 44.2°F6.8°C 38.1°F3.4°C 79% 1.2 mph NE1.9 kmh NE 2.3 mph3.7 kmh 30.47 in1031.8 mb - 0.00 in0.0 mm 0.00 in0.0 mm
06:25 AM 44.1°F6.7°C 38.0°F3.3°C 79% Calm Calm 1.2 mph1.9 kmh 30.47 in1031.8 mb - 0.00 in0.0 mm 0.00 in0.0 mm
06:20 AM 44.0°F6.7°C 37.9°F3.3°C 79% 1.2 mph N1.9 kmh N 2.3 mph3.7 kmh 30.47 in1031.8 mb - 0.00 in0.0 mm 0.00 in0.0 mm
06:15 AM 44.0°F6.7°C 37.9°F3.3°C 79% 1.2 mph S1.9 kmh S 2.3 mph3.7 kmh 30.47 in1031.8 mb - 0.00 in0.0 mm 0.00 in0.0 mm
06:10 AM 44.0°F6.7°C 37.9°F3.3°C 79% Calm Calm 1.2 mph1.9 kmh 30.47 in1031.8 mb - 0.00 in0.0 mm 0.00 in0.0 mm
06:05 AM 43.9°F6.6°C 37.8°F3.2°C 79% 1.2 mph S1.9 kmh S 1.2 mph1.9 kmh 30.46 in1031.5 mb - 0.00 in0.0 mm 0.00 in0.0 mm
06:00 AM 44.0°F6.7°C 37.9°F3.3°C 79% Calm Calm 2.3 mph3.7 kmh 30.46 in1031.5 mb - 0.00 in0.0 mm 0.00 in0.0 mm
05:55 AM 43.9°F6.6°C 37.8°F3.2°C 79% Calm Calm 1.2 mph1.9 kmh 30.47 in1031.8 mb - 0.00 in0.0 mm 0.00 in0.0 mm
05:50 AM 43.8°F6.6°C 37.7°F3.2°C 79% Calm Calm -- 30.48 in1032.2 mb - 0.00 in0.0 mm 0.00 in0.0 mm
05:45 AM 43.7°F6.5°C 37.6°F3.1°C 79% 1.2 mph N1.9 kmh N 3.5 mph5.6 kmh 30.47 in1031.8 mb - 0.00 in0.0 mm 0.00 in0.0 mm
05:40 AM 43.7°F6.5°C 37.6°F3.1°C 79% Calm Calm 1.2 mph1.9 kmh 30.48 in1032.2 mb - 0.00 in0.0 mm 0.00 in0.0 mm
05:35 AM 43.7°F6.5°C 37.6°F3.1°C 79% 1.2 mph N1.9 kmh N 1.2 mph1.9 kmh 30.48 in1032.2 mb - 0.00 in0.0 mm 0.00 in0.0 mm
05:30 AM 43.7°F6.5°C 37.6°F3.1°C 79% 1.2 mph N1.9 kmh N 2.3 mph3.7 kmh 30.48 in1032.2 mb - 0.00 in0.0 mm 0.00 in0.0 mm
05:25 AM 43.4°F6.3°C 37.3°F2.9°C 79% 1.2 mph NW1.9 kmh NW 3.5 mph5.6 kmh 30.48 in1032.2 mb - 0.00 in0.0 mm 0.00 in0.0 mm
05:20 AM 43.4°F6.3°C 37.3°F2.9°C 79% Calm Calm 1.2 mph1.9 kmh 30.48 in1032.2 mb - 0.00 in0.0 mm 0.00 in0.0 mm
05:15 AM 43.4°F6.3°C 37.3°F2.9°C 79% 1.2 mph W1.9 kmh W 2.3 mph3.7 kmh 30.48 in1032.2 mb - 0.00 in0.0 mm 0.00 in0.0 mm
05:10 AM 43.3°F6.3°C 37.2°F2.9°C 79% Calm Calm -- 30.48 in1032.2 mb - 0.00 in0.0 mm 0.00 in0.0 mm
05:05 AM 43.3°F6.3°C 37.2°F2.9°C 79% Calm Calm -- 30.48 in1032.2 mb - 0.00 in0.0 mm 0.00 in0.0 mm
05:00 AM 43.4°F6.3°C 37.3°F2.9°C 79% Calm Calm -- 30.48 in1032.2 mb - 0.00 in0.0 mm 0.00 in0.0 mm
04:55 AM 43.6°F6.4°C 37.5°F3.1°C 79% Calm Calm -- 30.48 in1032.2 mb - 0.00 in0.0 mm 0.00 in0.0 mm
04:50 AM 43.7°F6.5°C 37.6°F3.1°C 79% Calm Calm -- 30.48 in1032.2 mb - 0.00 in0.0 mm 0.00 in0.0 mm
04:45 AM 43.9°F6.6°C 37.8°F3.2°C 79% Calm Calm -- 30.48 in1032.2 mb - 0.00 in0.0 mm 0.00 in0.0 mm
04:40 AM 43.9°F6.6°C 37.8°F3.2°C 79% 1.2 mph W1.9 kmh W 1.2 mph1.9 kmh 30.48 in1032.2 mb - 0.00 in0.0 mm 0.00 in0.0 mm
04:35 AM 43.6°F6.4°C 37.5°F3.1°C 79% 1.2 mph NNW1.9 kmh NNW 2.3 mph3.7 kmh 30.48 in1032.2 mb - 0.00 in0.0 mm 0.00 in0.0 mm
04:30 AM 43.6°F6.4°C 37.5°F3.1°C 79% Calm Calm 1.2 mph1.9 kmh 30.49 in1032.5 mb - 0.00 in0.0 mm 0.00 in0.0 mm
04:25 AM 43.5°F6.4°C 37.4°F3.0°C 79% 1.2 mph NNW1.9 kmh NNW 2.3 mph3.7 kmh 30.49 in1032.5 mb - 0.00 in0.0 mm 0.00 in0.0 mm
04:20 AM 43.5°F6.4°C 37.4°F3.0°C 79% 2.3 mph NNW3.7 kmh NNW 3.5 mph5.6 kmh 30.49 in1032.5 mb - 0.00 in0.0 mm 0.00 in0.0 mm
04:15 AM 43.6°F6.4°C 37.2°F2.9°C 78% Calm Calm -- 30.49 in1032.5 mb - 0.00 in0.0 mm 0.00 in0.0 mm
04:10 AM 43.6°F6.4°C 37.2°F2.9°C 78% Calm Calm -- 30.49 in1032.5 mb - 0.00 in0.0 mm 0.00 in0.0 mm
04:05 AM 43.7°F6.5°C 37.3°F2.9°C 78% Calm Calm -- 30.49 in1032.5 mb - 0.00 in0.0 mm 0.00 in0.0 mm
04:00 AM 43.8°F6.6°C 37.4°F3.0°C 78% Calm Calm -- 30.49 in1032.5 mb - 0.00 in0.0 mm 0.00 in0.0 mm
03:55 AM 43.8°F6.6°C 37.4°F3.0°C 78% Calm Calm -- 30.50 in1032.8 mb - 0.00 in0.0 mm 0.00 in0.0 mm
03:50 AM 43.8°F6.6°C 37.3°F2.9°C 78% 1.2 mph N1.9 kmh N 1.2 mph1.9 kmh 30.50 in1032.8 mb - 0.00 in0.0 mm 0.00 in0.0 mm
03:45 AM 43.5°F6.4°C 37.1°F2.8°C 78% 1.2 mph N1.9 kmh N 2.3 mph3.7 kmh 30.50 in1032.8 mb - 0.00 in0.0 mm 0.00 in0.0 mm
03:40 AM 43.5°F6.4°C 37.1°F2.8°C 78% 1.2 mph N1.9 kmh N 2.3 mph3.7 kmh 30.49 in1032.5 mb - 0.00 in0.0 mm 0.00 in0.0 mm
03:35 AM 43.5°F6.4°C 37.1°F2.8°C 78% Calm Calm -- 30.50 in1032.8 mb - 0.00 in0.0 mm 0.00 in0.0 mm
03:30 AM 43.6°F6.4°C 37.2°F2.9°C 78% Calm Calm -- 30.50 in1032.8 mb - 0.00 in0.0 mm 0.00 in0.0 mm
03:25 AM 43.7°F6.5°C 37.3°F2.9°C 78% Calm Calm -- 30.50 in1032.8 mb - 0.00 in0.0 mm 0.00 in0.0 mm
03:20 AM 43.7°F6.5°C 37.3°F2.9°C 78% 2.3 mph N3.7 kmh N 2.3 mph3.7 kmh 30.50 in1032.8 mb - 0.00 in0.0 mm 0.00 in0.0 mm
03:15 AM 43.7°F6.5°C 37.3°F2.9°C 78% Calm Calm -- 30.50 in1032.8 mb - 0.00 in0.0 mm 0.00 in0.0 mm
03:10 AM 43.8°F6.6°C 37.4°F3.0°C 78% Calm Calm -- 30.50 in1032.8 mb - 0.00 in0.0 mm 0.00 in0.0 mm
03:05 AM 43.7°F6.5°C 37.3°F2.9°C 78% Calm Calm -- 30.51 in1033.2 mb - 0.00 in0.0 mm 0.00 in0.0 mm
03:00 AM 43.8°F6.6°C 37.4°F3.0°C 78% 1.2 mph N1.9 kmh N 1.2 mph1.9 kmh 30.51 in1033.2 mb - 0.00 in0.0 mm 0.00 in0.0 mm
02:55 AM 43.8°F6.6°C 37.4°F3.0°C 78% 2.3 mph N3.7 kmh N 2.3 mph3.7 kmh 30.51 in1033.2 mb - 0.00 in0.0 mm 0.00 in0.0 mm
02:50 AM 43.8°F6.6°C 37.4°F3.0°C 78% 2.3 mph N3.7 kmh N 3.5 mph5.6 kmh 30.52 in1033.5 mb - 0.00 in0.0 mm 0.00 in0.0 mm
02:45 AM 43.7°F6.5°C 37.3°F2.9°C 78% Calm Calm -- 30.52 in1033.5 mb - 0.00 in0.0 mm 0.00 in0.0 mm
02:40 AM 43.8°F6.6°C 37.4°F3.0°C 78% Calm Calm -- 30.52 in1033.5 mb - 0.00 in0.0 mm 0.00 in0.0 mm
02:35 AM 43.9°F6.6°C 37.5°F3.1°C 78% Calm Calm -- 30.52 in1033.5 mb - 0.00 in0.0 mm 0.00 in0.0 mm
02:30 AM 44.0°F6.7°C 37.6°F3.1°C 78% Calm Calm -- 30.52 in1033.5 mb - 0.00 in0.0 mm 0.00 in0.0 mm
02:25 AM 44.1°F6.7°C 37.7°F3.2°C 78% Calm Calm -- 30.52 in1033.5 mb - 0.00 in0.0 mm 0.00 in0.0 mm
02:20 AM 44.2°F6.8°C 37.8°F3.2°C 78% Calm Calm -- 30.52 in1033.5 mb - 0.00 in0.0 mm 0.00 in0.0 mm
02:15 AM 44.3°F6.8°C 37.5°F3.1°C 77% Calm Calm -- 30.52 in1033.5 mb - 0.00 in0.0 mm 0.00 in0.0 mm
02:10 AM 44.5°F6.9°C 38.1°F3.4°C 78% Calm Calm 1.2 mph1.9 kmh 30.52 in1033.5 mb - 0.00 in0.0 mm 0.00 in0.0 mm
02:05 AM 44.6°F7.0°C 38.2°F3.4°C 78% 1.2 mph N1.9 kmh N 2.3 mph3.7 kmh 30.52 in1033.5 mb - 0.00 in0.0 mm 0.00 in0.0 mm
02:00 AM 44.6°F7.0°C 38.2°F3.4°C 78% Calm Calm 2.3 mph3.7 kmh 30.53 in1033.9 mb - 0.00 in0.0 mm 0.00 in0.0 mm
01:55 AM 44.7°F7.1°C 37.9°F3.3°C 77% Calm Calm -- 30.53 in1033.9 mb - 0.00 in0.0 mm 0.00 in0.0 mm
01:50 AM 44.8°F7.1°C 38.0°F3.3°C 77% Calm Calm -- 30.53 in1033.9 mb - 0.00 in0.0 mm 0.00 in0.0 mm
01:45 AM 44.8°F7.1°C 38.0°F3.3°C 77% Calm Calm -- 30.53 in1033.9 mb - 0.00 in0.0 mm 0.00 in0.0 mm
01:40 AM 45.0°F7.2°C 38.2°F3.4°C 77% Calm Calm -- 30.53 in1033.9 mb - 0.00 in0.0 mm 0.00 in0.0 mm
01:35 AM 45.0°F7.2°C 38.2°F3.4°C 77% Calm Calm -- 30.53 in1033.9 mb - 0.00 in0.0 mm 0.00 in0.0 mm
01:30 AM 45.1°F7.3°C 38.3°F3.5°C 77% Calm Calm -- 30.53 in1033.9 mb - 0.00 in0.0 mm 0.00 in0.0 mm
01:25 AM 45.1°F7.3°C 38.3°F3.5°C 77% Calm Calm -- 30.53 in1033.9 mb - 0.00 in0.0 mm 0.00 in0.0 mm
01:20 AM 45.1°F7.3°C 38.3°F3.5°C 77% Calm Calm -- 30.53 in1033.9 mb - 0.00 in0.0 mm 0.00 in0.0 mm
01:15 AM 45.3°F7.4°C 38.5°F3.6°C 77% Calm Calm -- 30.53 in1033.9 mb - 0.00 in0.0 mm 0.00 in0.0 mm
01:10 AM 45.4°F7.4°C 38.6°F3.7°C 77% Calm Calm 2.3 mph3.7 kmh 30.53 in1033.9 mb - 0.00 in0.0 mm 0.00 in0.0 mm
01:05 AM 45.5°F7.5°C 38.7°F3.7°C 77% Calm Calm 1.2 mph1.9 kmh 30.53 in1033.9 mb - 0.00 in0.0 mm 0.00 in0.0 mm
01:00 AM 45.5°F7.5°C 38.7°F3.7°C 77% 1.2 mph N1.9 kmh N 2.3 mph3.7 kmh 30.54 in1034.2 mb - 0.00 in0.0 mm 0.00 in0.0 mm
12:55 AM 45.4°F7.4°C 38.6°F3.7°C 77% 2.3 mph N3.7 kmh N 3.5 mph5.6 kmh 30.54 in1034.2 mb - 0.00 in0.0 mm 0.00 in0.0 mm
12:50 AM 45.3°F7.4°C 38.5°F3.6°C 77% 1.2 mph N1.9 kmh N 2.3 mph3.7 kmh 30.54 in1034.2 mb - 0.00 in0.0 mm 0.00 in0.0 mm
12:45 AM 45.2°F7.3°C 38.4°F3.6°C 77% 2.3 mph N3.7 kmh N 3.5 mph5.6 kmh 30.54 in1034.2 mb - 0.00 in0.0 mm 0.00 in0.0 mm
12:40 AM 45.1°F7.3°C 38.3°F3.5°C 77% 2.3 mph N3.7 kmh N 2.3 mph3.7 kmh 30.54 in1034.2 mb - 0.00 in0.0 mm 0.00 in0.0 mm
12:35 AM 45.2°F7.3°C 38.4°F3.6°C 77% Calm Calm -- 30.54 in1034.2 mb - 0.00 in0.0 mm 0.00 in0.0 mm
12:30 AM 45.4°F7.4°C 38.6°F3.7°C 77% Calm Calm -- 30.54 in1034.2 mb - 0.00 in0.0 mm 0.00 in0.0 mm
12:25 AM 45.7°F7.6°C 38.9°F3.8°C 77% 2.3 mph N3.7 kmh N 3.5 mph5.6 kmh 30.54 in1034.2 mb - 0.00 in0.0 mm 0.00 in0.0 mm
12:20 AM 45.8°F7.7°C 39.0°F3.9°C 77% Calm Calm -- 30.54 in1034.2 mb - 0.00 in0.0 mm 0.00 in0.0 mm
12:15 AM 45.9°F7.7°C 39.1°F3.9°C 77% 1.2 mph N1.9 kmh N 1.2 mph1.9 kmh 30.54 in1034.2 mb - 0.00 in0.0 mm 0.00 in0.0 mm
12:10 AM 46.0°F7.8°C 39.2°F4.0°C 77% 2.3 mph N3.7 kmh N 3.5 mph5.6 kmh 30.54 in1034.2 mb - 0.00 in0.0 mm 0.00 in0.0 mm
12:05 AM 46.3°F7.9°C 39.5°F4.2°C 77% 2.3 mph SSE3.7 kmh SSE 3.5 mph5.6 kmh 30.54 in1034.2 mb - 0.00 in0.0 mm 0.00 in0.0 mm
12:00 AM 46.5°F8.1°C 39.7°F4.3°C 77% Calm Calm -- 30.54 in1034.2 mb - 0.00 in0.0 mm 0.00 in0.0 mm